Time;durP1;ratioP1;P1;durP2;ratioP2;P2;SDS_P1;SDS_P2;PMS_P1;PMS_P2;Temp;Humidity;BMP_temperature;BMP_pressure;BME280_temperature;BME280_humidity;BME280_pressure;Samples;Min_cycle;Max_cycle;Signal;HPM_P1;HPM_P2
2022/05/30 04:16:21;;;;;;;3.37;3.00;;;;;;;11.08;83.79;99794.59;5605320;31;216270;-89
2022/05/30 04:19:26;;;;;;;3.15;2.80;;;;;;;11.15;84.21;99801.25;5589198;31;33673;-89
2022/05/30 04:22:30;;;;;;;5.12;3.00;;;;;;;11.26;84.48;99805.03;5586815;32;33650;-89
2022/05/30 04:25:34;;;;;;;3.20;2.90;;;;;;;11.31;82.86;99811.75;5585516;32;34010;-89
2022/05/30 04:28:36;;;;;;;4.50;2.72;;;;;;;11.39;83.24;99813.94;5585433;32;33815;-89
2022/05/30 04:31:40;;;;;;;4.12;2.97;;;;;;;11.43;82.55;99820.75;5585811;32;32618;-89
2022/05/30 04:34:44;;;;;;;3.03;2.65;;;;;;;11.62;82.94;99818.75;5596871;31;33870;-89
2022/05/30 04:37:47;;;;;;;4.85;3.25;;;;;;;11.95;81.55;99821.06;5600159;31;34676;-89
2022/05/30 04:40:51;;;;;;;3.17;2.97;;;;;;;11.86;79.85;99821.66;5599388;32;35312;-89
2022/05/30 04:43:59;;;;;;;6.25;3.30;;;;;;;11.92;80.26;99823.06;5599077;31;32732;-88
2022/05/30 04:47:04;;;;;;;2.92;2.72;;;;;;;12.04;81.23;99830.28;5598957;31;34108;-89
2022/05/30 04:50:16;;;;;;;4.30;2.83;;;;;;;12.06;81.20;99830.19;5594862;32;34765;-89
2022/05/30 04:53:19;;;;;;;3.00;2.70;;;;;;;12.56;79.32;99838.44;5585509;31;33788;-88
2022/05/30 04:56:23;;;;;;;3.47;2.67;;;;;;;12.87;79.70;99839.03;5584057;31;33509;-88
2022/05/30 04:59:26;;;;;;;2.70;2.50;;;;;;;14.21;72.56;99844.84;5581751;31;32525;-88
2022/05/30 05:02:31;;;;;;;3.10;2.70;;;;;;;14.44;72.96;99850.31;5584738;31;33930;-88
2022/05/30 05:05:34;;;;;;;6.72;2.85;;;;;;;14.63;70.94;99850.63;5596598;31;34905;-88
2022/05/30 05:08:37;;;;;;;5.62;2.70;;;;;;;15.32;66.79;99842.81;5597258;31;35131;-85
2022/05/30 05:11:47;;;;;;;2.65;2.45;;;;;;;15.68;66.24;99848.06;5594666;32;35332;-88
2022/05/30 05:14:55;;;;;;;3.22;2.85;;;;;;;15.73;64.35;99836.00;5582621;31;32517;-88
2022/05/30 05:18:00;;;;;;;4.28;2.30;;;;;;;16.08;64.47;99854.72;5583556;32;34054;-88
2022/05/30 05:21:03;;;;;;;3.25;2.60;;;;;;;16.47;62.09;99868.47;5582577;32;33929;-88
2022/05/30 05:24:08;;;;;;;2.53;2.33;;;;;;;17.75;58.70;99858.56;5571454;31;34593;-89
2022/05/30 05:27:15;;;;;;;3.95;2.50;;;;;;;18.29;54.49;99866.34;5556785;32;33871;-86
2022/05/30 05:30:18;;;;;;;3.65;2.35;;;;;;;18.27;54.29;99864.78;5572630;32;33717;-90
2022/05/30 05:33:21;;;;;;;7.45;2.60;;;;;;;17.96;55.33;99862.16;5583615;32;34277;-88
2022/05/30 05:36:30;;;;;;;3.10;2.33;;;;;;;18.92;53.90;99879.50;5557312;32;33422;-89
2022/05/30 05:39:33;;;;;;;4.25;2.72;;;;;;;18.40;53.60;99876.09;5558466;32;33783;-88
2022/05/30 05:42:36;;;;;;;3.12;2.40;;;;;;;17.74;54.94;99869.41;5555290;32;34318;-88
2022/05/30 05:45:41;;;;;;;7.07;3.10;;;;;;;16.90;57.46;99879.25;5559202;32;33748;-88
2022/05/30 05:48:45;;;;;;;3.72;2.42;;;;;;;15.96;59.97;99888.66;5566718;32;33653;-88
2022/05/30 05:51:54;;;;;;;4.70;2.80;;;;;;;16.24;61.86;99875.72;5564828;32;33917;-87
2022/05/30 05:54:58;;;;;;;2.85;2.47;;;;;;;16.32;59.70;99886.63;5558903;32;34777;-86
2022/05/30 05:58:02;;;;;;;3.72;2.37;;;;;;;16.76;60.12;99883.94;5553549;31;34742;-87
2022/05/30 06:01:14;;;;;;;4.30;2.58;;;;;;;17.26;57.97;99877.09;5553357;31;33580;-86
2022/05/30 06:04:17;;;;;;;3.08;2.25;;;;;;;18.82;54.14;99892.94;5567643;32;34933;-85
2022/05/30 06:07:20;;;;;;;4.78;2.12;;;;;;;19.12;51.15;99894.63;5562122;32;34282;-86
2022/05/30 06:10:25;;;;;;;4.00;2.20;;;;;;;21.37;45.81;99886.37;5557259;32;33578;-85
2022/05/30 06:13:28;;;;;;;3.33;1.90;;;;;;;23.75;40.06;99885.25;5554902;32;33638;-87
2022/05/30 06:16:37;;;;;;;2.10;1.90;;;;;;;24.06;38.60;99889.00;5555984;32;34946;-87
2022/05/30 06:19:40;;;;;;;5.20;1.98;;;;;;;27.53;33.43;99889.72;5561985;32;34009;-88
2022/05/30 06:22:44;;;;;;;5.35;2.20;;;;;;;27.21;32.88;99887.44;5554887;31;33783;-87
2022/05/30 06:25:48;;;;;;;3.78;1.73;;;;;;;26.70;32.46;99878.37;5549876;32;34384;-87
2022/05/30 06:28:54;;;;;;;3.42;1.60;;;;;;;25.55;34.22;99887.88;5549770;32;35197;-87
2022/05/30 06:31:57;;;;;;;4.62;1.58;;;;;;;26.24;33.40;99885.88;5549147;32;35030;-87
2022/05/30 06:35:00;;;;;;;1.80;1.58;;;;;;;23.97;36.54;99882.75;5564887;31;33851;-88
2022/05/30 06:38:05;;;;;;;3.15;1.67;;;;;;;24.36;35.75;99889.19;5567204;32;34685;-88
2022/05/30 06:41:15;;;;;;;5.18;2.05;;;;;;;23.72;37.18;99893.69;5569488;32;34302;-87
2022/05/30 06:44:17;;;;;;;3.15;1.90;;;;;;;23.24;39.26;99899.03;5564123;32;34246;-87
2022/05/30 06:47:23;;;;;;;3.35;1.80;;;;;;;21.49;40.93;99892.34;5569072;32;32237;-89
2022/05/30 06:50:31;;;;;;;3.50;2.17;;;;;;;21.09;43.21;99894.59;5568488;32;32465;-91
2022/05/30 06:53:34;;;;;;;2.58;2.17;;;;;;;21.03;43.27;99897.91;5568583;32;34026;-92
2022/05/30 06:58:11;;;;;;;4.37;2.00;;;;;;;21.53;42.95;99886.44;5569087;32;35284;-90
2022/05/30 07:00:07;;;;;;;3.83;2.00;;;;;;;21.34;42.27;99894.78;5572092;32;33777;-87
2022/05/30 07:03:13;;;;;;;5.43;2.10;;;;;;;22.22;40.37;99895.53;5569434;32;34020;-88
2022/05/30 07:06:26;;;;;;;2.60;1.55;;;;;;;21.71;39.22;99904.47;5569226;31;33555;-86
2022/05/30 07:09:30;;;;;;;3.17;1.80;;;;;;;20.52;40.93;99915.44;5548789;32;32350;-86
2022/05/30 07:12:33;;;;;;;2.72;1.87;;;;;;;20.33;42.52;99903.81;5550373;32;35098;-87
2022/05/30 07:15:37;;;;;;;3.35;1.80;;;;;;;21.00;41.27;99910.72;5548198;32;34270;-87
2022/05/30 07:18:42;;;;;;;2.80;1.60;;;;;;;22.26;40.08;99893.34;5553043;32;34798;-87
2022/05/30 07:21:45;;;;;;;7.32;1.92;;;;;;;22.33;39.03;99897.94;5558498;32;33753;-87
2022/05/30 07:24:49;;;;;;;2.25;1.70;;;;;;;22.11;40.35;99898.56;5565486;32;33264;-86
2022/05/30 07:28:12;;;;;;;2.45;1.67;;;;;;;22.12;38.61;99906.47;5569032;31;33869;-87
2022/05/30 07:31:29;;;;;;;4.95;1.83;;;;;;;22.34;39.83;99904.19;5568264;32;32797;-86
2022/05/30 07:34:42;;;;;;;2.05;1.45;;;;;;;22.38;38.89;99889.31;5563815;32;32881;-87
2022/05/30 07:37:50;;;;;;;3.70;1.85;;;;;;;22.73;38.98;99884.69;5561082;32;34168;-86
2022/05/30 07:40:53;;;;;;;1.52;1.42;;;;;;;22.05;39.43;99898.22;5550308;32;34499;-88
2022/05/30 07:43:57;;;;;;;13.88;2.10;;;;;;;21.78;37.84;99913.59;5549131;32;34889;-87
2022/05/30 07:47:02;;;;;;;6.40;1.98;;;;;;;20.62;42.47;99907.31;5550429;32;34132;-86
2022/05/30 07:50:06;;;;;;;3.10;1.92;;;;;;;19.41;43.13;99916.25;5556295;32;34336;-87
2022/05/30 07:53:10;;;;;;;4.43;2.72;;;;;;;19.82;44.36;99907.91;5561614;32;33837;-87
2022/05/30 07:56:15;;;;;;;6.53;2.17;;;;;;;20.00;43.73;99916.91;5568090;32;34844;-90
2022/05/30 07:59:20;;;;;;;5.85;2.20;;;;;;;19.34;45.96;99922.22;5567129;32;34135;-91
2022/05/30 08:02:23;;;;;;;1.90;1.70;;;;;;;19.34;46.64;99919.50;5569822;32;34301;-88
2022/05/30 08:05:27;;;;;;;3.65;2.15;;;;;;;18.86;47.85;99918.56;5574529;32;34021;-88
2022/05/30 08:08:35;;;;;;;3.28;1.77;;;;;;;18.79;46.71;99923.63;5575117;32;34735;-87
2022/05/30 08:11:38;;;;;;;3.72;1.95;;;;;;;19.02;45.65;99922.50;5560049;32;33621;-87
2022/05/30 08:14:41;;;;;;;6.00;2.20;;;;;;;19.45;45.58;99923.03;5558503;32;34846;-86
2022/05/30 08:17:44;;;;;;;3.30;1.77;;;;;;;20.50;42.97;99912.06;5556128;32;35372;-87
2022/05/30 08:20:48;;;;;;;2.83;2.05;;;;;;;20.74;41.39;99924.09;5558458;32;33833;-87
2022/05/30 08:23:51;;;;;;;3.42;1.80;;;;;;;21.49;39.00;99925.56;5559520;32;33673;-87
2022/05/30 08:26:53;;;;;;;3.22;1.92;;;;;;;22.40;38.75;99922.44;5562872;32;34842;-88
2022/05/30 08:29:58;;;;;;;9.02;2.10;;;;;;;22.52;37.63;99928.41;5566819;32;33407;-87
2022/05/30 08:33:01;;;;;;;4.12;1.70;;;;;;;22.00;39.22;99932.09;5557274;32;34090;-88
2022/05/30 08:36:08;;;;;;;4.00;2.10;;;;;;;21.88;39.04;99936.94;5561988;32;34690;-87
2022/05/30 08:42:33;;;;;;;2.15;1.90;;;;;;;21.81;37.91;99942.97;5554373;32;31703;-87
2022/05/30 08:45:38;;;;;;;3.75;1.75;;;;;;;21.15;41.21;99942.50;5548081;32;34617;-87
2022/05/30 08:48:51;;;;;;;6.07;1.92;;;;;;;20.66;40.42;99937.50;5554177;32;33640;-87
2022/05/30 08:52:19;;;;;;;7.07;1.92;;;;;;;21.06;39.94;99924.59;5563324;32;34007;-87
2022/05/30 08:55:45;;;;;;;2.15;1.55;;;;;;;21.23;40.22;99915.59;5566875;32;33981;-87
2022/05/30 08:59:16;;;;;;;6.12;2.10;;;;;;;20.86;41.56;99920.19;5551494;32;33935;-87
2022/05/30 09:02:31;;;;;;;2.55;1.90;;;;;;;21.00;41.50;99936.81;5521088;32;33892;-88
2022/05/30 09:05:45;;;;;;;4.75;2.12;;;;;;;20.89;41.97;99937.91;5556267;32;34845;-88
2022/05/30 09:08:55;;;;;;;5.32;2.42;;;;;;;21.15;42.73;99942.50;5549202;32;32381;-87
2022/05/30 09:12:08;;;;;;;3.60;2.10;;;;;;;21.33;41.41;99955.97;5565639;32;34242;-88
2022/05/30 09:15:20;;;;;;;2.33;2.12;;;;;;;20.95;42.20;99956.16;5558302;32;34945;-87
2022/05/30 09:18:35;;;;;;;5.32;2.22;;;;;;;20.86;40.80;99957.94;5571596;32;35099;-87
2022/05/30 09:21:39;;;;;;;2.47;1.87;;;;;;;20.45;43.03;99952.09;5560553;32;34470;-88
2022/05/30 09:25:55;;;;;;;2.67;2.03;;;;;;;20.97;41.80;99951.47;5550357;32;34009;-88
2022/05/30 09:28:13;;;;;;;4.53;2.10;;;;;;;20.76;42.98;99954.44;5551211;32;33147;-86
2022/05/30 09:31:34;;;;;;;2.22;2.00;;;;;;;20.26;43.11;99961.16;5563638;32;32759;-86
2022/05/30 09:34:49;;;;;;;3.60;2.28;;;;;;;20.01;45.54;99961.66;5548633;32;33257;-86
2022/05/30 09:38:20;;;;;;;5.90;2.35;;;;;;;19.38;45.66;99963.09;5550807;32;35305;-90
2022/05/30 09:41:29;;;;;;;7.10;2.67;;;;;;;19.50;46.56;99970.00;5549271;32;34432;-86
2022/05/30 09:44:42;;;;;;;3.83;2.53;;;;;;;19.49;46.39;99964.78;5549967;32;33793;-88
2022/05/30 09:48:03;;;;;;;5.28;2.42;;;;;;;20.61;44.66;99956.81;5550362;32;34214;-88
2022/05/30 09:51:07;;;;;;;2.50;2.20;;;;;;;21.22;42.91;99962.44;5551686;32;34418;-87
2022/05/30 09:54:29;;;;;;;6.22;2.25;;;;;;;21.58;41.89;99963.37;5569216;31;34040;-87
2022/05/30 09:57:43;;;;;;;4.80;2.17;;;;;;;21.03;41.37;99973.41;5568114;32;34393;-87
2022/05/30 10:00:54;;;;;;;3.90;2.10;;;;;;;20.73;43.19;99977.13;5555450;32;33897;-88
2022/05/30 10:04:15;;;;;;;3.28;2.42;;;;;;;20.70;43.04;99984.69;5566554;32;32636;-88
2022/05/30 10:07:20;;;;;;;5.43;2.67;;;;;;;20.31;43.10;99985.75;5572634;32;33611;-89
2022/05/30 10:10:39;;;;;;;3.05;2.53;;;;;;;20.32;44.23;99991.00;5584595;32;34931;-90
2022/05/30 10:13:43;;;;;;;3.90;2.67;;;;;;;20.70;43.42;99990.06;5576400;32;35252;-88
2022/05/30 10:16:51;;;;;;;2.95;2.20;;;;;;;20.60;43.63;99991.00;5582262;32;35191;-89
2022/05/30 10:19:55;;;;;;;4.40;2.00;;;;;;;20.96;41.69;99983.97;5574179;32;33668;-90
2022/05/30 10:30:39;;;;;;;4.80;2.78;;;;;;;21.52;39.18;99981.91;5579116;32;35620;-87
2022/05/30 10:34:14;;;;;;;7.07;3.72;;;;;;;21.08;40.00;99974.62;5561228;32;35145;-85
2022/05/30 10:37:24;;;;;;;3.75;2.50;;;;;;;20.43;42.59;99973.78;5548698;32;34137;-86
2022/05/30 10:40:45;;;;;;;5.57;2.25;;;;;;;21.99;38.98;99970.91;5547053;32;32498;-85
2022/05/30 10:43:54;;;;;;;2.95;2.15;;;;;;;21.58;38.71;99984.97;5562382;32;34402;-90
2022/05/30 10:47:05;;;;;;;2.35;2.15;;;;;;;20.84;40.92;99988.72;5569832;32;35136;-87
2022/05/30 10:50:53;;;;;;;3.08;2.22;;;;;;;21.11;40.97;100001.31;5555713;32;34768;-88
2022/05/30 10:53:56;;;;;;;1.98;1.80;;;;;;;19.95;42.99;100007.16;5557239;32;34504;-87
2022/05/30 10:57:25;;;;;;;3.60;2.10;;;;;;;19.71;43.28;100006.63;5561674;32;34307;-86
2022/05/30 11:00:36;;;;;;;4.22;2.20;;;;;;;18.83;45.62;99996.75;5549778;32;34417;-87
2022/05/30 11:03:45;;;;;;;4.15;2.10;;;;;;;19.26;44.42;99991.97;5560866;32;33706;-87
2022/05/30 11:06:52;;;;;;;4.03;2.33;;;;;;;19.49;44.97;99988.97;5577092;32;35189;-87
2022/05/30 11:10:13;;;;;;;7.40;2.40;;;;;;;20.11;43.60;99991.25;5582333;26;34828;-88
2022/05/30 11:13:28;;;;;;;3.40;2.00;;;;;;;20.27;44.70;99992.47;5548625;32;35081;-88
2022/05/30 11:16:47;;;;;;;3.83;2.40;;;;;;;20.26;43.58;100004.25;5548283;32;34759;-91
2022/05/30 11:20:11;;;;;;;7.57;2.58;;;;;;;19.85;43.85;100018.78;5541710;32;33980;-87
2022/05/30 11:23:15;;;;;;;3.95;2.15;;;;;;;19.77;44.09;100018.69;5547861;32;33626;-89
2022/05/30 11:26:55;;;;;;;2.80;2.00;;;;;;;19.62;44.43;100031.72;5546842;32;35137;-87
2022/05/30 11:30:20;;;;;;;2.83;2.15;;;;;;;19.72;44.41;100018.25;5537723;32;32320;-87
2022/05/30 11:33:44;;;;;;;4.43;2.25;;;;;;;19.43;44.46;100030.75;5548685;32;34102;-86
2022/05/30 11:37:00;;;;;;;6.20;2.50;;;;;;;19.50;44.59;100029.19;5542187;32;33987;-86
2022/05/30 11:40:18;;;;;;;2.78;2.05;;;;;;;19.19;45.00;100034.72;5543801;32;34027;-87
2022/05/30 11:44:23;;;;;;;2.85;2.12;;;;;;;19.20;45.38;100022.97;5543205;32;33845;-87
2022/05/30 11:47:28;;;;;;;9.93;2.50;;;;;;;19.27;46.37;100015.19;5446141;32;33899;-86
2022/05/30 11:50:37;;;;;;;5.50;2.22;;;;;;;19.41;45.71;100016.59;5534951;32;34414;-87
2022/05/30 11:54:42;;;;;;;5.00;2.70;;;;;;;18.97;46.44;100014.31;5565974;32;33499;-89
2022/05/30 11:58:10;;;;;;;6.30;2.75;;;;;;;18.82;45.52;100013.87;5515953;26;34276;-88
2022/05/30 12:01:16;;;;;;;5.22;1.95;;;;;;;19.12;45.10;100017.47;5507285;32;34073;-90
2022/05/30 12:05:23;;;;;;;8.43;2.10;;;;;;;19.03;45.53;100011.09;5141821;30;20124;-89
2022/05/30 12:13:04;;;;;;;3.30;2.35;;;;;;;18.73;45.54;100012.84;5458302;32;34887;-87
2022/05/30 12:16:58;;;;;;;4.00;2.87;;;;;;;19.24;44.83;100015.47;5451145;32;34188;-86
2022/05/30 12:24:03;;;;;;;4.68;2.55;;;;;;;19.02;46.14;100016.56;5469256;32;33831;-89
2022/05/30 12:30:55;;;;;;;5.43;2.40;;;;;;;18.58;46.29;100017.78;4880337;30;20116;-89
2022/05/30 12:33:58;;;;;;;3.53;2.30;;;;;;;18.51;47.47;100014.78;5502254;32;34007;-88
2022/05/30 12:37:01;;;;;;;6.82;2.25;;;;;;;18.74;45.13;100011.03;5504888;32;33951;-87
2022/05/30 12:40:09;;;;;;;2.53;1.70;;;;;;;18.88;46.67;100004.38;5497889;32;34417;-87
2022/05/30 12:43:22;;;;;;;3.28;2.05;;;;;;;18.66;46.97;100000.97;5506160;32;33907;-90
2022/05/30 12:46:28;;;;;;;2.55;2.10;;;;;;;18.97;45.11;100001.69;5528747;27;34904;-90
2022/05/30 12:49:37;;;;;;;4.07;2.08;;;;;;;19.02;45.15;100008.50;5542492;32;33933;-88
2022/05/30 12:52:54;;;;;;;4.93;2.00;;;;;;;19.02;44.00;100009.38;5536406;32;34406;-89
2022/05/30 12:55:57;;;;;;;3.15;2.30;;;;;;;19.36;44.73;100000.06;5549352;32;33929;-86
2022/05/30 12:59:02;;;;;;;4.65;2.03;;;;;;;19.79;44.02;99997.84;5545177;32;34758;-86
2022/05/30 13:02:07;;;;;;;4.05;2.05;;;;;;;19.76;42.42;100001.66;5539808;32;34137;-85
2022/05/30 13:05:23;;;;;;;4.12;1.90;;;;;;;18.97;44.50;99999.00;5539631;32;33808;-88
2022/05/30 13:08:45;;;;;;;8.93;2.20;;;;;;;18.73;45.52;99996.75;5556683;32;35331;-91
2022/05/30 13:12:11;;;;;;;4.12;1.90;;;;;;;18.61;46.36;99992.47;5540044;32;32377;-86
2022/05/30 13:15:21;;;;;;;3.20;2.20;;;;;;;19.20;44.36;99992.53;5547673;32;34166;-86
2022/05/30 13:18:24;;;;;;;2.83;1.77;;;;;;;19.19;44.88;99994.41;5519257;32;32556;-86
2022/05/30 13:21:28;;;;;;;4.28;2.03;;;;;;;19.46;44.63;100000.03;5544033;32;33948;-86
2022/05/30 13:24:36;;;;;;;6.12;2.05;;;;;;;19.29;44.94;100002.44;5543748;32;33458;-86
2022/05/30 13:27:38;;;;;;;2.55;1.87;;;;;;;19.24;44.69;100002.87;5527359;32;32353;-86
2022/05/30 13:30:43;;;;;;;2.20;1.92;;;;;;;19.25;44.52;100004.59;5529911;32;34182;-86
2022/05/30 13:33:53;;;;;;;3.72;1.83;;;;;;;19.23;44.62;100006.56;5527196;32;32377;-86
2022/05/30 13:36:58;;;;;;;6.00;2.30;;;;;;;19.33;44.34;100006.56;5547996;32;34740;-86
2022/05/30 13:40:05;;;;;;;5.03;2.03;;;;;;;18.97;45.46;100009.75;5536927;32;32676;-86
2022/05/30 13:43:19;;;;;;;4.15;2.30;;;;;;;19.21;44.76;100010.41;5545081;32;34268;-87
2022/05/30 13:46:44;;;;;;;3.70;2.22;;;;;;;19.36;44.52;100008.94;5539629;32;33866;-86
2022/05/30 13:49:53;;;;;;;3.72;2.50;;;;;;;19.16;44.78;100021.53;5530108;32;33009;-85
2022/05/30 13:52:56;;;;;;;2.97;2.05;;;;;;;19.29;44.15;100023.09;5532380;32;33910;-86
2022/05/30 13:56:01;;;;;;;3.58;2.42;;;;;;;19.32;44.81;100022.84;5538211;32;33855;-86
2022/05/30 13:59:22;;;;;;;5.37;2.45;;;;;;;19.23;44.41;100014.63;5534855;32;32978;-86
2022/05/30 14:02:28;;;;;;;5.00;2.45;;;;;;;19.40;44.39;100017.59;5549933;32;33666;-87
2022/05/30 14:05:43;;;;;;;4.57;1.92;;;;;;;19.34;43.71;100015.47;5548196;32;33817;-86
2022/05/30 14:08:46;;;;;;;9.50;2.00;;;;;;;19.45;43.64;100018.00;5534940;32;35179;-84
2022/05/30 14:11:57;;;;;;;3.85;2.50;;;;;;;19.59;43.84;100016.72;5534307;32;33974;-87
2022/05/30 14:15:25;;;;;;;6.72;2.42;;;;;;;19.63;43.62;100020.84;5554730;32;34560;-86
2022/05/30 14:18:57;;;;;;;8.40;2.70;;;;;;;19.69;45.33;100027.47;5551715;32;35174;-85
2022/05/30 14:22:27;;;;;;;6.05;2.50;;;;;;;20.13;43.66;100035.03;5554634;32;33850;-84
2022/05/30 14:25:49;;;;;;;3.28;2.20;;;;;;;20.46;43.60;100026.50;5553495;32;34647;-84
2022/05/30 14:29:07;;;;;;;4.72;2.35;;;;;;;20.70;41.68;100022.41;5537950;32;33569;-84
2022/05/30 14:32:25;;;;;;;4.53;2.20;;;;;;;19.92;42.68;100025.28;5558237;32;34232;-88
2022/05/30 14:35:27;;;;;;;2.87;2.00;;;;;;;19.86;43.69;100016.97;5537560;32;32930;-84
2022/05/30 14:38:38;;;;;;;2.53;2.08;;;;;;;20.04;43.32;100022.44;5549177;32;33895;-85
2022/05/30 14:41:57;;;;;;;4.15;2.22;;;;;;;20.29;42.99;100012.88;5531032;32;33892;-85
2022/05/30 14:45:11;;;;;;;5.20;2.85;;;;;;;20.54;41.69;100013.16;5517434;32;33126;-84
2022/05/30 14:48:26;;;;;;;5.28;2.47;;;;;;;20.44;42.42;100021.28;5533044;32;34305;-84
2022/05/30 14:51:31;;;;;;;3.83;2.20;;;;;;;20.31;41.97;100027.03;5539871;32;32688;-84
2022/05/30 14:54:46;;;;;;;5.75;3.10;;;;;;;19.77;43.40;100027.56;5558908;32;34251;-85
2022/05/30 14:57:59;;;;;;;6.10;3.60;;;;;;;19.14;51.39;100026.22;5523072;32;33031;-85
2022/05/30 15:01:03;;;;;;;6.97;3.55;;;;;;;18.49;56.90;100030.19;5550241;32;34741;-85
2022/05/30 15:04:09;;;;;;;4.60;3.47;;;;;;;18.63;57.37;100026.28;5537417;32;34004;-84
2022/05/30 15:07:27;;;;;;;7.75;3.62;;;;;;;18.29;59.00;100021.19;5537008;32;34033;-84
2022/05/30 15:10:30;;;;;;;7.20;3.53;;;;;;;18.64;58.58;100019.03;5549343;32;34487;-84
2022/05/30 15:13:32;;;;;;;4.55;3.53;;;;;;;18.95;56.76;100022.50;5551372;32;34299;-84
2022/05/30 15:16:36;;;;;;;5.87;3.50;;;;;;;18.72;55.86;100017.38;5550143;32;34109;-85
2022/05/30 15:19:38;;;;;;;6.78;3.08;;;;;;;18.56;56.68;100025.12;5550018;32;33872;-85
2022/05/30 15:22:41;;;;;;;5.70;3.17;;;;;;;18.36;56.99;100032.25;5553586;32;34146;-84
2022/05/30 15:25:44;;;;;;;6.47;3.17;;;;;;;18.24;58.16;100029.66;5558911;32;34961;-85
2022/05/30 15:28:48;;;;;;;4.95;3.17;;;;;;;18.31;57.58;100019.25;5550968;32;34159;-84
2022/05/30 15:31:52;;;;;;;4.55;2.95;;;;;;;18.37;56.83;100023.22;5552489;32;33606;-86
2022/05/30 15:34:55;;;;;;;3.95;2.90;;;;;;;18.39;56.42;100019.41;5555003;32;34466;-89
2022/05/30 15:38:00;;;;;;;4.32;3.20;;;;;;;18.27;57.54;100018.69;5539616;32;34077;-89
2022/05/30 15:41:03;;;;;;;5.95;2.75;;;;;;;18.12;58.17;100028.91;5537927;32;32535;-85
2022/05/30 15:44:17;;;;;;;3.65;3.00;;;;;;;18.27;57.20;100034.78;5551407;32;35553;-86
